Athens Ben Epps Airport
KAHN : now visible

Airfield :











YOU CAN JOIN US ON...

 
LOGIN :

Register | Disclaimer

   EN    FR    IT 

 









Legend :    VFR   Marginal VFR   IFR   Intensive IFR   Very Intensive IFR
Visi :
Ceiling :
>= 8 km
>= 3000ft
5 to 8 km
1000 to 3000 ft
1500m to 5 km
500 to 1000 ft
800 to 1500m
200 to 500 ft
< 800m
< 200 ft
Symbols :   Thunderstorms  Fog  Heavy snow  Heavy precipitations  Wind > 20 kt






- Airport Elevation : 808 ft
- IATA code : AHN


KAHN - Athens Ben Epps

CURRENT METAR :
  • 250451Z AUTO 07006KT 2 1/2SM +RA BR BKN004 BKN010 OVC021 20/18 A2994 RMK AO2 CIG 003V008 SLP131 P0052 T02000183 402890167

EXPIRED METARs :
  • 250442Z AUTO 05005KT 5SM RA BR BKN004 BKN010 OVC021 20/18 A2994 RMK AO2 CIG 003V008 P0046 T02000183
  • 250420Z AUTO 08007KT 5SM RA BR FEW003 BKN014 OVC028 20/18 A2995 RMK AO2 P0040 T02000183
  • 250408Z AUTO 06008KT 3SM +RA BR FEW006 BKN030 OVC049 19/18 A2995 RMK AO2 P0038 T01940183
  • 250351Z AUTO 08006KT 1 3/4SM +RA BR FEW006 BKN021 OVC050 20/18 A2996 RMK AO2 SLP140 P0072 T02000183
  • 250347Z AUTO 08007KT 2SM +RA BR FEW004 BKN023 OVC050 20/18 A2996 RMK AO2 P0070
  • 250333Z AUTO 05006KT 1 1/4SM +RA BR SCT004 BKN014 OVC019 20/19 A2996 RMK AO2 P0035 T02000189
  • 250326Z AUTO 06005KT 1 3/4SM +RA BR BKN004 OVC016 21/19 A2996 RMK AO2 P0015 T02060189
  • 250312Z AUTO 07003KT 5SM RA BR BKN004 BKN015 OVC060 21/19 A2997 RMK AO2 P0005 T02060194
  • 250258Z AUTO 01004KT 5SM RA BR SCT008 BKN035 OVC100 21/19 A2996 RMK AO2 P0001 T02060194
  • 250251Z AUTO 03005KT 5SM RA BR SCT004 BKN014 OVC060 21/19 A2996 RMK AO2 SLP139 P0015 60027 T02060194 50006
  • 250243Z AUTO 04004KT 5SM RA BR BKN004 BKN022 OVC043 21/19 A2996 RMK AO2 P0012 T02110194
  • 250221Z AUTO 36005KT 4SM +RA BR BKN005 BKN050 OVC100 21/19 A2996 RMK AO2 P0008 T02110194
  • 250207Z AUTO 34003KT 4SM RA BR SCT007 BKN050 OVC100 21/19 A2996 RMK AO2 P0003 T02110194
  • 250151Z AUTO 31003KT 4SM -RA BR FEW039 BKN090 OVC110 21/19 A2996 RMK AO2 SLP140 P0009 T02110194

TAF KAHN
Valid from the 25 at 03:00 until the 26 at 00:00 UTC


250236Z 2503/2524 00000KT P6SM SHRA SCT005 SCT030 BKN060
TEMPO 2503/2504 3SM -TSRA BKN005CB
FM250400 VRB03KT 4SM BR OVC007
FM251100 00000KT 4SM BR BKN005
FM251500 29003KT P6SM BKN007
FM252100 03004KT P6SM BKN025
KZTL FIR / North America



MET'MAP, your aeronautical weather chart ! - Copyright ORBIFLY December 2007 - Disclaimer

ORBIFLY MET'MAP TEAM :

Programming & Development : Alexandra Zaïnal
Concept & original design : Baudouin d'Aumeries
Assistance for programming : Marc-Olivier Méhu
Technical & hardware support : Manuel Goepfert

Contact : metmap@orbifly.com




SOURCES & CREDITS :

   NOAA       Earth
Advisory